地図

経路データ

SID SEASON NUMBER BASIN SUBBASIN NAME ISO_TIME NATURE LAT LON WMO_WIND WMO_PRES WMO_AGENCY TRACK_TYPE DIST2LAND LANDFALL IFLAG USA_AGENCY USA_ATCF_ID USA_LAT USA_LON USA_RECORD USA_STATUS USA_WIND USA_PRES USA_SSHS USA_R34_NE USA_R34_SE USA_R34_SW USA_R34_NW USA_R50_NE USA_R50_SE USA_R50_SW USA_R50_NW USA_R64_NE USA_R64_SE USA_R64_SW USA_R64_NW USA_POCI USA_ROCI USA_RMW USA_EYE TOKYO_LAT TOKYO_LON TOKYO_GRADE TOKYO_WIND TOKYO_PRES TOKYO_R50_DIR TOKYO_R50_LONG TOKYO_R50_SHORT TOKYO_R30_DIR TOKYO_R30_LONG TOKYO_R30_SHORT TOKYO_LAND CMA_LAT CMA_LON CMA_CAT CMA_WIND CMA_PRES HKO_LAT HKO_LON HKO_CAT HKO_WIND HKO_PRES NEWDELHI_LAT NEWDELHI_LON NEWDELHI_GRADE NEWDELHI_WIND NEWDELHI_PRES NEWDELHI_CI NEWDELHI_DP NEWDELHI_POCI REUNION_LAT REUNION_LON REUNION_TYPE REUNION_WIND REUNION_PRES REUNION_TNUM REUNION_CI REUNION_RMW REUNION_R34_NE REUNION_R34_SE REUNION_R34_SW REUNION_R34_NW REUNION_R50_NE REUNION_R50_SE REUNION_R50_SW REUNION_R50_NW REUNION_R64_NE REUNION_R64_SE REUNION_R64_SW REUNION_R64_NW BOM_LAT BOM_LON BOM_TYPE BOM_WIND BOM_PRES BOM_TNUM BOM_CI BOM_RMW BOM_R34_NE BOM_R34_SE BOM_R34_SW BOM_R34_NW BOM_R50_NE BOM_R50_SE BOM_R50_SW BOM_R50_NW BOM_R64_NE BOM_R64_SE BOM_R64_SW BOM_R64_NW BOM_ROCI BOM_POCI BOM_EYE BOM_POS_METHOD BOM_PRES_METHOD NADI_LAT NADI_LON NADI_CAT NADI_WIND NADI_PRES WELLINGTON_LAT WELLINGTON_LON WELLINGTON_WIND WELLINGTON_PRES DS824_LAT DS824_LON DS824_STAGE DS824_WIND DS824_PRES TD9636_LAT TD9636_LON TD9636_STAGE TD9636_WIND TD9636_PRES TD9635_LAT TD9635_LON TD9635_WIND TD9635_PRES TD9635_ROCI NEUMANN_LAT NEUMANN_LON NEUMANN_CLASS NEUMANN_WIND NEUMANN_PRES MLC_LAT MLC_LON MLC_CLASS MLC_WIND MLC_PRES USA_GUST BOM_GUST BOM_GUST_PER REUNION_GUST REUNION_GUST_PER USA_SEAHGT USA_SEARAD_NE USA_SEARAD_SE USA_SEARAD_SW USA_SEARAD_NW STORM_SPEED STORM_DIR
1969163N21274 1969 35 NA CS NOT_NAMED 1969-06-12 00:00:00 TS 20.5000 -85.9000 25 hurdat_atl main 106 98 O_____________ hurdat_atl AL041969 20.5000 -85.9000 TD 25 -1 2 264
1969163N21274 1969 35 NA CS NOT_NAMED 1969-06-12 03:00:00 TS 20.4900 -86.0075 main 98 89 P_____________ AL041969 20.4900 -86.0075 TD 25 -1 2 270
1969163N21274 1969 35 NA CS NOT_NAMED 1969-06-12 06:00:00 TS 20.5000 -86.1000 25 hurdat_atl main 89 80 O_____________ hurdat_atl AL041969 20.5000 -86.1000 TD 25 -1 2 288
1969163N21274 1969 35 NA CS NOT_NAMED 1969-06-12 09:00:00 TS 20.5424 -86.1775 main 80 66 P_____________ AL041969 20.5424 -86.1775 TD 25 -1 2 299
1969163N21274 1969 35 NA CS NOT_NAMED 1969-06-12 12:00:00 TS 20.6000 -86.3000 25 hurdat_atl main 66 47 O_____________ hurdat_atl AL041969 20.6000 -86.3000 TD 25 -1 4 287
1969163N21274 1969 35 NA CS NOT_NAMED 1969-06-12 15:00:00 TS 20.6501 -86.5500 main 43 15 P_____________ AL041969 20.6501 -86.5500 TD 25 -1 5 282
1969163N21274 1969 35 NA CS NOT_NAMED 1969-06-12 18:00:00 TS 20.7000 -86.8000 25 hurdat_atl main 15 11 O_____________ hurdat_atl AL041969 20.7000 -86.8000 TD 25 -1 4 286
1969163N21274 1969 35 NA CS NOT_NAMED 1969-06-12 21:00:00 TS 20.7499 -86.9225 main 11 0 P_____________ AL041969 20.7499 -86.9225 TD 25 -1 2 299
1969163N21274 1969 35 NA NA NOT_NAMED 1969-06-13 00:00:00 TS 20.8000 -87.0000 25 hurdat_atl main 0 0 O_____________ hurdat_atl AL041969 20.8000 -87.0000 TD 25 -1 2 303
1969163N21274 1969 35 NA NA NOT_NAMED 1969-06-13 03:00:00 TS 20.8500 -87.0925 main 0 0 P_____________ AL041969 20.8500 -87.0925 TD 25 -1 2 299
1969163N21274 1969 35 NA NA NOT_NAMED 1969-06-13 06:00:00 TS 20.9000 -87.2000 25 hurdat_atl main 0 0 O_____________ hurdat_atl AL041969 20.9000 -87.2000 TD 25 -1 3 292
1969163N21274 1969 35 NA NA NOT_NAMED 1969-06-13 09:00:00 TS 20.9425 -87.3425 main 0 0 P_____________ AL041969 20.9425 -87.3425 TD 25 -1 3 290
1969163N21274 1969 35 NA NA NOT_NAMED 1969-06-13 12:00:00 TS 21.0000 -87.5000 25 hurdat_atl main 0 0 O_____________ hurdat_atl AL041969 21.0000 -87.5000 TD 25 -1 3 296
1969163N21274 1969 35 NA NA NOT_NAMED 1969-06-13 15:00:00 TS 21.0850 -87.6500 main 0 0 P_____________ AL041969 21.0850 -87.6500 TD 25 -1 3 305
1969163N21274 1969 35 NA NA NOT_NAMED 1969-06-13 18:00:00 TS 21.2000 -87.8000 25 hurdat_atl main 0 0 O_____________ hurdat_atl AL041969 21.2000 -87.8000 TD 25 -1 4 314
1969163N21274 1969 35 NA NA NOT_NAMED 1969-06-13 21:00:00 TS 21.3575 -87.9575 main 0 0 P_____________ AL041969 21.3575 -87.9575 TD 25 -1 4 317
1969163N21274 1969 35 NA NA NOT_NAMED 1969-06-14 00:00:00 TS 21.5000 -88.1000 25 hurdat_atl main 0 0 O_____________ hurdat_atl AL041969 21.5000 -88.1000 TD 25 -1 3 312
1969163N21274 1969 35 NA GM NOT_NAMED 1969-06-14 03:00:00 TS 21.5650 -88.2076 main 11 11 P_____________ AL041969 21.5650 -88.2076 TD 25 -1 2 299
1969163N21274 1969 35 NA GM NOT_NAMED 1969-06-14 06:00:00 TS 21.6000 -88.3000 25 hurdat_atl main 11 11 O_____________ hurdat_atl AL041969 21.6000 -88.3000 TD 25 -1 2 297
1969163N21274 1969 35 NA GM NOT_NAMED 1969-06-14 09:00:00 TS 21.6424 -88.3701 main 11 11 P_____________ AL041969 21.6424 -88.3701 TD 25 -1 2 299
1969163N21274 1969 35 NA GM NOT_NAMED 1969-06-14 12:00:00 TS 21.7000 -88.5000 25 hurdat_atl main 22 22 O_____________ hurdat_atl AL041969 21.7000 -88.5000 TD 25 -1 4 292
1969163N21274 1969 35 NA GM NOT_NAMED 1969-06-14 15:00:00 TS 21.8001 -88.7849 main 39 39 P_____________ AL041969 21.8001 -88.7849 TD 25 -1 6 290
1969163N21274 1969 35 NA GM NOT_NAMED 1969-06-14 18:00:00 TS 21.9000 -89.1000 25 hurdat_atl main 63 63 O_____________ hurdat_atl AL041969 21.9000 -89.1000 TD 25 -1 5 288
1969163N21274 1969 35 NA GM NOT_NAMED 1969-06-14 21:00:00 TS 21.9624 -89.3301 main 78 78 P_____________ AL041969 21.9624 -89.3301 TD 25 -1 4 285
1969163N21274 1969 35 NA GM NOT_NAMED 1969-06-15 00:00:00 TS 22.0000 -89.5000 25 hurdat_atl main 80 O_____________ hurdat_atl AL041969 22.0000 -89.5000 TD 25 -1 3 283

IBTrACS Databaseについて

本データベースは、米国NOAAが公開する1842年以降の世界の熱帯低気圧のベストトラックデータアーカイブInternational Best Track Archive for Climate Stewardship (IBTrACS)を、ウェブで閲覧しやすい形式に変換したものです。

最終更新日:2021-12-03